Time;durP1;ratioP1;P1;durP2;ratioP2;P2;SDS_P1;SDS_P2;PMS_P1;PMS_P2;Temp;Humidity;BMP_temperature;BMP_pressure;BME280_temperature;BME280_humidity;BME280_pressure;Samples;Min_cycle;Max_cycle;Signal;HPM_P1;HPM_P2
2022/12/16 00:01:42;;;;;;;;;;;;;;;-147.11;100.00;61570.13;5098715;27;19912;-54
2022/12/16 00:04:08;;;;;;;;;;;;;;;-147.11;100.00;61570.13;5098369;27;20401;-53
2022/12/16 00:06:33;;;;;;;;;;;;;;;-147.11;100.00;61570.13;5096393;27;21167;-52
2022/12/16 00:08:59;;;;;;;;;;;;;;;-147.11;100.00;61570.13;5101633;27;19924;-52
2022/12/16 00:11:24;;;;;;;;;;;;;;;-147.11;100.00;61570.13;5097650;28;19915;-52
2022/12/16 00:13:49;;;;;;;;;;;;;;;-147.11;100.00;61570.13;5094981;28;19960;-53
2022/12/16 00:16:15;;;;;;;;;;;;;;;-147.11;100.00;61570.13;5100340;27;20363;-53
2022/12/16 00:18:41;;;;;;;;;;;;;;;-147.11;100.00;61570.13;5105927;27;19916;-54
2022/12/16 00:21:07;;;;;;;;;;;;;;;-147.11;100.00;61570.13;5100456;27;19942;-53
2022/12/16 00:23:33;;;;;;;;;;;;;;;-147.11;100.00;61570.13;5099106;27;19963;-53
2022/12/16 00:25:59;;;;;;;;;;;;;;;-147.11;100.00;61570.13;5101708;27;19922;-52
2022/12/16 00:28:24;;;;;;;;;;;;;;;-147.11;100.00;61570.13;5096099;27;19932;-54
2022/12/16 00:30:50;;;;;;;;;;;;;;;-147.11;100.00;61570.13;5101274;27;20026;-53
2022/12/16 00:33:16;;;;;;;;;;;;;;;-147.11;100.00;61570.13;5097996;27;19963;-54
2022/12/16 00:35:42;;;;;;;;;;;;;;;-147.11;100.00;61570.13;5089704;28;19993;-53
2022/12/16 00:38:07;;;;;;;;;;;;;;;-147.11;100.00;61570.13;5104031;27;20006;-52
2022/12/16 00:40:33;;;;;;;;;;;;;;;-147.11;100.00;61570.13;5101258;27;20006;-53
2022/12/16 00:42:58;;;;;;;;;;;;;;;-147.11;100.00;61570.13;5096927;27;20301;-53
2022/12/16 00:45:23;;;;;;;;;;;;;;;-147.11;100.00;61570.13;5098955;27;20473;-52
2022/12/16 00:47:49;;;;;;;;;;;;;;;-147.11;100.00;61570.13;5093758;27;19927;-53
2022/12/16 00:50:15;;;;;;;;;;;;;;;-147.11;100.00;61570.13;5098647;27;19920;-52
2022/12/16 00:52:40;;;;;;;;;;;;;;;-147.11;100.00;61570.13;5097863;27;20359;-52
2022/12/16 00:55:06;;;;;;;;;;;;;;;-147.11;100.00;61570.13;5105330;27;19916;-52
2022/12/16 00:57:32;;;;;;;;;;;;;;;-147.11;100.00;61570.13;5095423;28;24682;-52
2022/12/16 00:59:57;;;;;;;;;;;;;;;-147.11;100.00;61570.13;5100821;28;20402;-52
2022/12/16 01:02:23;;;;;;;;;;;;;;;-147.11;100.00;61570.13;5100607;27;19922;-53
2022/12/16 01:04:48;;;;;;;;;;;;;;;-147.11;100.00;61570.13;5102759;27;20383;-53
2022/12/16 01:07:13;;;;;;;;;;;;;;;-147.11;100.00;61570.13;5096483;28;19931;-53
2022/12/16 01:09:38;;;;;;;;;;;;;;;-147.11;100.00;61570.13;5089077;28;19916;-52
2022/12/16 01:12:04;;;;;;;;;;;;;;;-147.11;100.00;61570.13;5096643;27;19927;-53
2022/12/16 01:14:30;;;;;;;;;;;;;;;-147.11;100.00;61570.13;5096888;27;19955;-53
2022/12/16 01:16:55;;;;;;;;;;;;;;;-147.11;100.00;61570.13;5097276;27;19981;-53
2022/12/16 01:19:20;;;;;;;;;;;;;;;-147.11;100.00;61570.13;5103013;27;20371;-52
2022/12/16 01:21:46;;;;;;;;;;;;;;;-147.11;100.00;61570.13;5100860;27;19973;-54
2022/12/16 01:24:11;;;;;;;;;;;;;;;-147.11;100.00;61570.13;5099307;27;19935;-53
2022/12/16 01:26:38;;;;;;;;;;;;;;;-147.11;100.00;61570.13;5102016;27;19944;-52
2022/12/16 01:29:03;;;;;;;;;;;;;;;-147.11;100.00;61570.13;5094587;28;19994;-52
2022/12/16 01:31:28;;;;;;;;;;;;;;;-147.11;100.00;61570.13;5104019;28;20363;-53
2022/12/16 01:33:53;;;;;;;;;;;;;;;-147.11;100.00;61570.13;5105460;27;19960;-53
2022/12/16 01:36:19;;;;;;;;;;;;;;;-147.11;100.00;61570.13;5107112;27;20394;-53
2022/12/16 01:38:44;;;;;;;;;;;;;;;-147.11;100.00;61570.13;5099254;27;19918;-52
2022/12/16 01:41:11;;;;;;;;;;;;;;;-147.11;100.00;61570.13;5100587;27;19924;-52
2022/12/16 01:43:37;;;;;;;;;;;;;;;-147.11;100.00;61570.13;5096596;27;19919;-52
2022/12/16 01:46:12;;;;;;;;;;;;;;;-147.11;100.00;61570.13;5102463;28;20012;-52
2022/12/16 01:48:40;;;;;;;;;;;;;;;-147.11;100.00;61570.13;5089635;23;19932;-64
2022/12/16 01:51:07;;;;;;;;;;;;;;;-147.11;100.00;61570.13;5064646;28;20014;-59
2022/12/16 01:53:34;;;;;;;;;;;;;;;-147.11;100.00;61570.13;5067800;28;19917;-63
2022/12/16 01:56:00;;;;;;;;;;;;;;;-147.11;100.00;61570.13;5062725;28;20287;-65
2022/12/16 01:58:28;;;;;;;;;;;;;;;-147.11;100.00;61570.13;5050243;28;20403;-56
2022/12/16 02:00:54;;;;;;;;;;;;;;;-147.11;100.00;61570.13;5040676;28;20399;-57
2022/12/16 02:03:19;;;;;;;;;;;;;;;-147.11;100.00;61570.13;5049100;28;19960;-56
2022/12/16 02:05:46;;;;;;;;;;;;;;;-147.11;100.00;61570.13;5044563;28;19924;-59
2022/12/16 02:08:13;;;;;;;;;;;;;;;-147.11;100.00;61570.13;5044764;28;20019;-56
2022/12/16 02:10:41;;;;;;;;;;;;;;;-147.11;100.00;61570.13;5045048;28;19929;-59
2022/12/16 02:13:25;;;;;;;;;;;;;;;-147.11;100.00;61570.13;5045775;28;19917;-56
2022/12/16 02:16:08;;;;;;;;;;;;;;;-147.11;100.00;61570.13;5050428;28;20024;-63
2022/12/16 02:18:46;;;;;;;;;;;;;;;-147.11;100.00;61570.13;5047887;28;19957;-56
2022/12/16 02:21:27;;;;;;;;;;;;;;;-147.11;100.00;61570.13;5046791;28;19921;-56
2022/12/16 02:23:52;;;;;;;;;;;;;;;-147.11;100.00;61570.13;5046256;28;20702;-59
2022/12/16 02:26:36;;;;;;;;;;;;;;;-147.11;100.00;61570.13;5047379;28;19956;-56
2022/12/16 02:29:04;;;;;;;;;;;;;;;-147.11;100.00;61570.13;5045429;28;19920;-58
2022/12/16 02:31:37;;;;;;;;;;;;;;;-147.11;100.00;61570.13;5041983;28;20063;-60
2022/12/16 02:34:05;;;;;;;;;;;;;;;-147.11;100.00;61570.13;5042001;28;19952;-57
2022/12/16 02:36:30;;;;;;;;;;;;;;;-147.11;100.00;61570.13;5047601;28;19947;-56
2022/12/16 02:39:01;;;;;;;;;;;;;;;-147.11;100.00;61570.13;5040385;28;19928;-56
2022/12/16 02:41:26;;;;;;;;;;;;;;;-147.11;100.00;61570.13;5050735;28;20031;-56
2022/12/16 02:44:01;;;;;;;;;;;;;;;-147.11;100.00;61570.13;5058684;28;20345;-56
2022/12/16 02:46:28;;;;;;;;;;;;;;;-147.11;100.00;61570.13;5048215;28;19925;-56
2022/12/16 02:48:54;;;;;;;;;;;;;;;-147.11;100.00;61570.13;5041457;28;19920;-59
2022/12/16 02:51:21;;;;;;;;;;;;;;;-147.11;100.00;61570.13;5044084;28;20280;-59
2022/12/16 02:53:47;;;;;;;;;;;;;;;-147.11;100.00;61570.13;5046108;28;20465;-57
2022/12/16 02:56:12;;;;;;;;;;;;;;;-147.11;100.00;61570.13;5044201;28;20036;-56
2022/12/16 02:58:37;;;;;;;;;;;;;;;-147.11;100.00;61570.13;5043783;28;20406;-58
2022/12/16 03:01:08;;;;;;;;;;;;;;;-147.11;100.00;61570.13;5048987;28;19923;-59
2022/12/16 03:03:39;;;;;;;;;;;;;;;-147.11;100.00;61570.13;5042587;28;19923;-60
2022/12/16 03:06:05;;;;;;;;;;;;;;;-147.11;100.00;61570.13;5043908;28;19916;-58
2022/12/16 03:08:36;;;;;;;;;;;;;;;-147.11;100.00;61570.13;5047602;28;19932;-58
2022/12/16 03:11:03;;;;;;;;;;;;;;;-147.11;100.00;61570.13;5052251;28;20418;-63
2022/12/16 03:13:32;;;;;;;;;;;;;;;-147.11;100.00;61570.13;5040699;28;20053;-65
2022/12/16 03:15:59;;;;;;;;;;;;;;;-147.11;100.00;61570.13;5049702;28;19921;-58
2022/12/16 03:18:25;;;;;;;;;;;;;;;-147.11;100.00;61570.13;5053638;28;19949;-58
2022/12/16 03:20:57;;;;;;;;;;;;;;;-147.11;100.00;61570.13;5049493;28;19924;-56
2022/12/16 03:23:43;;;;;;;;;;;;;;;-147.11;100.00;61570.13;5050225;28;19917;-61
2022/12/16 03:26:13;;;;;;;;;;;;;;;-147.11;100.00;61570.13;5054150;28;19919;-61
2022/12/16 03:28:38;;;;;;;;;;;;;;;-147.11;100.00;61570.13;5049911;28;20388;-65
2022/12/16 03:31:10;;;;;;;;;;;;;;;-147.11;100.00;61570.13;5053688;28;19920;-56
2022/12/16 03:33:44;;;;;;;;;;;;;;;-147.11;100.00;61570.13;5046079;28;19917;-56
2022/12/16 03:36:13;;;;;;;;;;;;;;;-147.11;100.00;61570.13;5049622;28;20504;-57
2022/12/16 03:38:39;;;;;;;;;;;;;;;-147.11;100.00;61570.13;5047643;28;19963;-61
2022/12/16 03:41:05;;;;;;;;;;;;;;;-147.11;100.00;61570.13;5038012;28;19925;-57
2022/12/16 03:43:31;;;;;;;;;;;;;;;-147.11;100.00;61570.13;5047381;28;20388;-62
2022/12/16 03:45:59;;;;;;;;;;;;;;;-147.11;100.00;61570.13;5053539;28;19924;-58
2022/12/16 03:48:24;;;;;;;;;;;;;;;-147.11;100.00;61570.13;5050840;28;19943;-60
2022/12/16 03:50:50;;;;;;;;;;;;;;;-147.11;100.00;61570.13;5035403;28;20527;-56
2022/12/16 03:53:15;;;;;;;;;;;;;;;-147.11;100.00;61570.13;5031103;28;20018;-62
2022/12/16 03:55:41;;;;;;;;;;;;;;;-147.11;100.00;61570.13;5049130;28;20263;-60
2022/12/16 03:58:06;;;;;;;;;;;;;;;-147.11;100.00;61570.13;5054626;28;19974;-55
2022/12/16 04:00:32;;;;;;;;;;;;;;;-147.11;100.00;61570.13;5053510;28;19917;-59
2022/12/16 04:02:57;;;;;;;;;;;;;;;-147.11;100.00;61570.13;5052350;28;19962;-55
2022/12/16 04:05:22;;;;;;;;;;;;;;;-147.11;100.00;61570.13;5056310;28;19920;-56
2022/12/16 04:07:48;;;;;;;;;;;;;;;-147.11;100.00;61570.13;5040507;28;19921;-59
2022/12/16 04:10:13;;;;;;;;;;;;;;;-147.11;100.00;61570.13;5051596;28;19920;-56
2022/12/16 04:29:31;;;;;;;;;;;;;;;-147.11;100.00;61570.13;5025754;28;19928;-55
2022/12/16 04:31:57;;;;;;;;;;;;;;;-147.11;100.00;61570.13;5045845;28;19917;-58
2022/12/16 04:34:26;;;;;;;;;;;;;;;-147.11;100.00;61570.13;5051289;28;19932;-58
